createdAt,value
2018-03-02T20:55:38.515Z,82.70
2018-03-02T20:58:06.842Z,81.80
2018-03-02T21:00:34.427Z,82.90
2018-03-02T21:03:02.553Z,83.40
2018-03-02T21:05:31.165Z,83.50
2018-03-02T21:08:00.019Z,83.00
2018-03-02T21:10:29.673Z,82.70
2018-03-02T21:12:58.153Z,82.20
2018-03-02T21:15:26.092Z,82.80
2018-03-02T21:17:54.934Z,84.00
2018-03-02T21:20:23.004Z,83.00
2018-03-02T21:22:50.549Z,82.90
2018-03-02T21:25:18.904Z,83.10
2018-03-02T21:27:47.497Z,82.70
2018-03-02T21:30:26.893Z,83.10
2018-03-02T21:32:55.557Z,83.60
2018-03-02T21:35:24.029Z,83.60
2018-03-02T21:37:51.997Z,84.60
2018-03-02T21:40:20.403Z,85.50
2018-03-02T21:42:49.207Z,85.10
2018-03-02T21:45:17.192Z,85.50
2018-03-02T21:47:45.140Z,85.20
2018-03-02T21:50:12.818Z,84.90
2018-03-02T21:52:40.425Z,85.40
2018-03-02T21:55:11.824Z,85.90
2018-03-02T21:57:39.790Z,85.60
2018-03-02T22:00:07.404Z,85.10
2018-03-02T22:02:35.806Z,84.50
2018-03-02T22:05:08.634Z,84.40
2018-03-02T22:07:38.207Z,84.80
2018-03-02T22:10:08.624Z,84.50
2018-03-02T22:12:37.619Z,84.60
2018-03-02T22:15:09.595Z,84.70
2018-03-02T22:17:38.260Z,84.90
2018-03-02T22:20:09.063Z,86.10
2018-03-02T22:22:37.761Z,86.60
2018-03-02T22:25:06.323Z,86.10
2018-03-02T22:27:34.623Z,86.50
2018-03-02T22:30:03.156Z,86.30
2018-03-02T22:32:31.383Z,85.40
2018-03-02T22:35:00.087Z,85.80
2018-03-02T22:37:31.892Z,87.00
2018-03-02T22:40:01.251Z,86.50
2018-03-02T22:42:29.554Z,86.00
2018-03-02T22:44:58.077Z,85.80
2018-03-02T22:47:26.072Z,85.30
2018-03-02T22:49:57.393Z,84.80
2018-03-02T22:52:27.823Z,85.00
2018-03-02T22:55:00.579Z,85.50
2018-03-02T22:57:36.256Z,85.00
2018-03-02T23:00:05.373Z,84.80
2018-03-02T23:02:34.037Z,84.80
2018-03-02T23:05:05.432Z,84.80
2018-03-02T23:07:34.883Z,84.50
2018-03-02T23:10:04.090Z,84.20
2018-03-02T23:12:33.569Z,85.10
2018-03-02T23:15:03.477Z,84.40
2018-03-02T23:17:33.384Z,84.50
2018-03-02T23:20:01.744Z,84.30
2018-03-02T23:22:30.575Z,84.20
2018-03-02T23:25:05.979Z,84.50
2018-03-02T23:27:34.131Z,84.20
2018-03-02T23:30:04.540Z,84.20
2018-03-02T23:32:35.622Z,84.20
2018-03-02T23:35:05.187Z,84.60
2018-03-02T23:37:34.099Z,84.60
2018-03-02T23:40:04.622Z,85.20
2018-03-02T23:42:33.633Z,85.10
2018-03-02T23:45:03.858Z,85.10
2018-03-02T23:47:33.006Z,85.80
2018-03-02T23:50:03.965Z,85.90
2018-03-02T23:52:35.177Z,85.30
2018-03-02T23:55:04.592Z,85.10
2018-03-02T23:57:33.482Z,84.80
